Time;durP1;ratioP1;P1;durP2;ratioP2;P2;SDS_P1;SDS_P2;PMS_P1;PMS_P2;Temp;Humidity;BMP_temperature;BMP_pressure;BME280_temperature;BME280_humidity;BME280_pressure;Samples;Min_cycle;Max_cycle;Signal;HPM_P1;HPM_P2
2022/05/12 00:01:32;;;;;;;6.50;3.03;;;;;;;;;;7389525;19;20153;-75
2022/05/12 00:03:58;;;;;;;2.97;2.70;;;;;;;;;;7380155;19;21774;-74
2022/05/12 00:06:24;;;;;;;5.75;2.72;;;;;;;;;;7383151;19;20145;-74
2022/05/12 00:08:49;;;;;;;3.17;2.88;;;;;;;;;;7385421;19;20132;-74
2022/05/12 00:11:15;;;;;;;3.78;2.90;;;;;;;;;;7382847;19;20173;-75
2022/05/12 00:13:41;;;;;;;3.20;2.53;;;;;;;;;;7382658;19;20157;-74
2022/05/12 00:16:08;;;;;;;5.15;2.70;;;;;;;;;;7377651;19;20167;-77
2022/05/12 00:18:34;;;;;;;6.63;2.80;;;;;;;;;;7380979;19;20129;-74
2022/05/12 00:21:00;;;;;;;4.10;2.90;;;;;;;;;;7380925;19;20137;-74
2022/05/12 00:23:27;;;;;;;4.38;2.67;;;;;;;;;;7383376;19;20121;-74
2022/05/12 00:25:54;;;;;;;3.42;2.65;;;;;;;;;;7369858;19;20169;-74
2022/05/12 00:28:21;;;;;;;4.70;2.85;;;;;;;;;;7379585;19;20148;-74
2022/05/12 00:30:48;;;;;;;5.57;2.70;;;;;;;;;;7379972;19;20136;-74
2022/05/12 00:33:15;;;;;;;5.40;2.40;;;;;;;;;;7384336;19;20117;-74
2022/05/12 00:35:42;;;;;;;5.90;2.58;;;;;;;;;;7385782;19;20153;-75
2022/05/12 00:38:08;;;;;;;4.45;2.42;;;;;;;;;;7376475;19;20145;-74
2022/05/12 00:40:34;;;;;;;3.80;2.70;;;;;;;;;;7369870;19;20125;-74
2022/05/12 00:43:08;;;;;;;5.13;2.63;;;;;;;;;;7372319;19;20185;-74
2022/05/12 00:45:37;;;;;;;4.60;2.65;;;;;;;;;;7372303;19;20536;-74
2022/05/12 00:48:04;;;;;;;4.10;2.60;;;;;;;;;;7379375;19;20133;-75
2022/05/12 00:50:33;;;;;;;5.05;2.97;;;;;;;;;;7379216;19;20507;-74
2022/05/12 00:53:00;;;;;;;5.00;2.80;;;;;;;;;;7380216;19;20133;-73
2022/05/12 00:55:29;;;;;;;3.95;2.40;;;;;;;;;;7377567;19;20156;-74
2022/05/12 00:57:56;;;;;;;6.85;2.55;;;;;;;;;;7383424;19;20205;-74
2022/05/12 01:00:23;;;;;;;3.33;2.47;;;;;;;;;;7381359;19;20137;-74
2022/05/12 01:02:51;;;;;;;3.53;2.20;;;;;;;;;;7378583;19;20141;-76
2022/05/12 01:05:18;;;;;;;4.13;2.40;;;;;;;;;;7384229;19;20148;-77
2022/05/12 01:07:44;;;;;;;4.40;2.60;;;;;;;;;;7386520;19;20292;-76
2022/05/12 01:10:10;;;;;;;3.80;2.15;;;;;;;;;;7387049;19;20140;-76
2022/05/12 01:12:42;;;;;;;7.10;2.90;;;;;;;;;;7389320;19;20121;-76
2022/05/12 01:15:09;;;;;;;2.88;2.30;;;;;;;;;;7389836;19;20248;-76
2022/05/12 01:17:35;;;;;;;4.05;2.38;;;;;;;;;;7388737;19;20140;-76
2022/05/12 01:20:01;;;;;;;6.20;2.40;;;;;;;;;;7382878;19;20257;-77
2022/05/12 01:22:46;;;;;;;4.10;2.10;;;;;;;;;;7389405;19;20740;-76
2022/05/12 01:25:15;;;;;;;5.37;2.37;;;;;;;;;;7391300;19;20212;-76
2022/05/12 01:27:42;;;;;;;5.37;2.30;;;;;;;;;;7386281;19;20129;-76
2022/05/12 01:30:09;;;;;;;5.80;2.63;;;;;;;;;;7391408;19;20227;-76
2022/05/12 01:32:35;;;;;;;2.40;2.08;;;;;;;;;;7388637;19;20125;-80
2022/05/12 01:35:01;;;;;;;5.85;2.30;;;;;;;;;;7388399;19;20149;-79
2022/05/12 01:37:27;;;;;;;4.23;2.27;;;;;;;;;;7384557;19;20156;-76
2022/05/12 01:39:53;;;;;;;3.43;2.43;;;;;;;;;;7379279;19;20139;-77
2022/05/12 01:42:19;;;;;;;3.37;2.30;;;;;;;;;;7381741;19;20120;-76
2022/05/12 01:44:45;;;;;;;3.33;2.10;;;;;;;;;;7386156;19;20145;-76
2022/05/12 01:47:12;;;;;;;4.60;2.30;;;;;;;;;;7389498;19;20152;-77
2022/05/12 01:49:38;;;;;;;3.40;2.20;;;;;;;;;;7389089;19;20141;-77
2022/05/12 01:52:04;;;;;;;5.23;2.47;;;;;;;;;;7389751;19;20129;-76
2022/05/12 01:54:30;;;;;;;5.73;2.60;;;;;;;;;;7380083;19;20634;-78
2022/05/12 01:56:57;;;;;;;5.33;2.40;;;;;;;;;;7390168;19;20599;-76
2022/05/12 01:59:23;;;;;;;2.97;2.20;;;;;;;;;;7380284;19;20179;-76
2022/05/12 02:01:50;;;;;;;4.83;2.00;;;;;;;;;;7388246;19;20579;-76
2022/05/12 02:04:17;;;;;;;3.63;2.10;;;;;;;;;;7385637;19;20619;-76
2022/05/12 02:06:43;;;;;;;4.93;2.50;;;;;;;;;;7387578;19;20141;-76
2022/05/12 02:09:09;;;;;;;3.50;2.40;;;;;;;;;;7387180;19;20129;-76
2022/05/12 02:11:35;;;;;;;5.07;2.60;;;;;;;;;;7387547;19;20144;-77
2022/05/12 02:14:04;;;;;;;4.73;2.50;;;;;;;;;;7381893;19;20161;-76
2022/05/12 02:16:30;;;;;;;4.27;2.60;;;;;;;;;;7385739;19;20160;-76
2022/05/12 02:18:56;;;;;;;7.10;2.67;;;;;;;;;;7382169;19;20627;-76
2022/05/12 02:21:22;;;;;;;2.40;2.20;;;;;;;;;;7383920;19;20615;-76
2022/05/12 02:23:48;;;;;;;3.30;2.40;;;;;;;;;;7386940;19;20132;-76
2022/05/12 02:26:14;;;;;;;6.00;2.20;;;;;;;;;;7381324;19;20148;-78
2022/05/12 02:28:41;;;;;;;6.67;2.53;;;;;;;;;;7389311;19;20148;-76
2022/05/12 02:31:07;;;;;;;3.97;2.30;;;;;;;;;;7384593;19;20141;-76
2022/05/12 02:33:33;;;;;;;3.00;2.20;;;;;;;;;;7384008;19;20707;-76
2022/05/12 02:35:59;;;;;;;3.80;2.20;;;;;;;;;;7383104;19;20614;-76
2022/05/12 02:38:25;;;;;;;3.73;2.53;;;;;;;;;;7385124;19;20121;-76
2022/05/12 02:40:51;;;;;;;3.70;2.30;;;;;;;;;;7384033;19;20151;-76
2022/05/12 02:43:23;;;;;;;3.30;2.20;;;;;;;;;;7381374;19;20114;-76
2022/05/12 02:45:53;;;;;;;3.27;2.30;;;;;;;;;;7381485;19;20259;-77
2022/05/12 02:48:20;;;;;;;4.03;2.30;;;;;;;;;;7385358;19;20166;-76
2022/05/12 02:50:46;;;;;;;5.27;2.20;;;;;;;;;;7385550;19;20154;-76
2022/05/12 02:53:12;;;;;;;5.73;2.40;;;;;;;;;;7389113;19;20148;-76
2022/05/12 02:55:38;;;;;;;5.03;2.40;;;;;;;;;;7389416;19;20177;-76
2022/05/12 02:58:04;;;;;;;6.80;2.30;;;;;;;;;;7391081;19;20150;-76
2022/05/12 03:00:31;;;;;;;5.03;2.23;;;;;;;;;;7388659;19;20133;-76
2022/05/12 03:02:58;;;;;;;3.73;2.47;;;;;;;;;;7391713;19;20138;-76
2022/05/12 03:05:24;;;;;;;3.00;2.23;;;;;;;;;;7390981;19;20181;-80
2022/05/12 03:07:50;;;;;;;5.23;2.27;;;;;;;;;;7388897;19;20611;-76
2022/05/12 03:10:16;;;;;;;5.87;2.17;;;;;;;;;;7381378;19;20500;-76
2022/05/12 03:12:42;;;;;;;3.53;2.20;;;;;;;;;;7383601;19;20132;-80
2022/05/12 03:15:09;;;;;;;3.73;2.67;;;;;;;;;;7378739;19;20172;-77
2022/05/12 03:17:35;;;;;;;4.00;2.20;;;;;;;;;;7380949;19;20159;-78
2022/05/12 03:20:01;;;;;;;4.63;2.50;;;;;;;;;;7383584;19;20487;-76
2022/05/12 03:22:27;;;;;;;7.07;2.40;;;;;;;;;;7383295;19;22179;-77
2022/05/12 03:24:53;;;;;;;2.93;2.43;;;;;;;;;;7391962;19;20159;-76
2022/05/12 03:27:20;;;;;;;4.07;2.20;;;;;;;;;;7389465;19;20121;-76
2022/05/12 03:29:46;;;;;;;4.50;2.30;;;;;;;;;;7385023;19;20137;-76
2022/05/12 03:32:12;;;;;;;5.40;2.30;;;;;;;;;;7386826;19;20125;-76
2022/05/12 03:34:39;;;;;;;6.77;2.30;;;;;;;;;;7389359;19;20148;-77
2022/05/12 03:37:09;;;;;;;5.23;2.83;;;;;;;;;;7393803;19;20143;-77
2022/05/12 03:39:37;;;;;;;4.53;3.03;;;;;;;;;;7391291;19;20144;-76
2022/05/12 03:42:04;;;;;;;5.00;2.23;;;;;;;;;;7392968;19;20153;-77
2022/05/12 03:44:50;;;;;;;2.60;2.40;;;;;;;;;;7390324;19;20214;-76
2022/05/12 03:47:24;;;;;;;2.70;2.00;;;;;;;;;;7408049;19;20147;-76
2022/05/12 03:49:50;;;;;;;6.27;2.50;;;;;;;;;;7420185;19;20137;-79
2022/05/12 03:52:17;;;;;;;5.17;2.60;;;;;;;;;;7423093;19;20138;-77
2022/05/12 03:54:43;;;;;;;4.43;2.57;;;;;;;;;;7421463;19;20148;-77
2022/05/12 03:57:10;;;;;;;4.90;2.23;;;;;;;;;;7404263;19;20145;-76
2022/05/12 03:59:40;;;;;;;4.07;2.40;;;;;;;;;;7390210;19;20128;-76
2022/05/12 04:02:06;;;;;;;3.87;2.23;;;;;;;;;;7389569;19;20129;-76
2022/05/12 04:04:33;;;;;;;5.23;2.17;;;;;;;;;;7388526;19;20163;-76
2022/05/12 04:06:59;;;;;;;5.20;2.63;;;;;;;;;;7391476;19;20136;-76
2022/05/12 04:09:25;;;;;;;2.97;2.07;;;;;;;;;;7387221;19;20164;-76
2022/05/12 04:11:52;;;;;;;3.80;2.30;;;;;;;;;;7376265;19;20575;-76
2022/05/12 04:14:18;;;;;;;3.63;2.60;;;;;;;;;;7384212;19;20140;-76
2022/05/12 04:16:44;;;;;;;3.43;2.33;;;;;;;;;;7384882;19;20192;-76
2022/05/12 04:19:11;;;;;;;3.33;2.50;;;;;;;;;;7381054;19;20192;-77
2022/05/12 04:21:37;;;;;;;4.93;2.27;;;;;;;;;;7369376;19;20151;-77
2022/05/12 04:24:05;;;;;;;6.90;2.47;;;;;;;;;;7369488;19;20141;-76
2022/05/12 04:26:32;;;;;;;5.47;2.07;;;;;;;;;;7367070;19;20145;-76
2022/05/12 04:28:57;;;;;;;4.70;2.13;;;;;;;;;;7368458;19;20125;-76
2022/05/12 04:31:24;;;;;;;5.63;2.50;;;;;;;;;;7366028;19;20121;-76
2022/05/12 04:36:36;;;;;;;7.27;3.00;;;;;;;;;;7381709;19;20149;-77
2022/05/12 04:39:03;;;;;;;3.67;2.63;;;;;;;;;;7380574;19;20137;-75
2022/05/12 04:41:29;;;;;;;6.03;2.60;;;;;;;;;;7382160;19;20147;-74
2022/05/12 04:43:55;;;;;;;3.60;2.20;;;;;;;;;;7394732;19;20150;-77
2022/05/12 04:46:21;;;;;;;3.90;2.70;;;;;;;;;;7391634;19;20183;-78
2022/05/12 04:48:48;;;;;;;6.13;2.80;;;;;;;;;;7393367;19;20533;-76
2022/05/12 04:51:14;;;;;;;4.80;2.80;;;;;;;;;;7396148;19;20137;-76
2022/05/12 04:53:40;;;;;;;7.50;3.20;;;;;;;;;;7395630;19;20141;-76
2022/05/12 04:56:06;;;;;;;4.50;2.70;;;;;;;;;;7394690;19;20220;-75
2022/05/12 04:58:32;;;;;;;5.27;2.80;;;;;;;;;;7397086;19;20607;-77
2022/05/12 05:00:58;;;;;;;10.40;2.90;;;;;;;;;;7397155;19;20136;-75
2022/05/12 05:03:24;;;;;;;3.83;2.53;;;;;;;;;;7396374;19;20161;-75
2022/05/12 05:05:51;;;;;;;4.13;2.40;;;;;;;;;;7396330;19;20157;-74
2022/05/12 05:08:20;;;;;;;3.17;2.60;;;;;;;;;;7391634;19;20222;-74
2022/05/12 05:10:46;;;;;;;3.30;2.50;;;;;;;;;;7395436;19;20137;-75
2022/05/12 05:13:12;;;;;;;12.77;2.73;;;;;;;;;;7387460;19;20125;-75
2022/05/12 05:15:38;;;;;;;3.43;2.40;;;;;;;;;;7381667;19;20654;-75
2022/05/12 05:18:04;;;;;;;4.87;2.67;;;;;;;;;;7378292;19;20129;-76
2022/05/12 05:20:31;;;;;;;3.63;2.87;;;;;;;;;;7384308;19;20185;-77
2022/05/12 05:22:57;;;;;;;4.57;2.67;;;;;;;;;;7378451;19;21056;-75
2022/05/12 05:25:23;;;;;;;7.93;2.63;;;;;;;;;;7374468;19;20270;-75
2022/05/12 05:27:51;;;;;;;5.33;2.93;;;;;;;;;;7368542;19;20156;-75
2022/05/12 05:30:19;;;;;;;4.10;3.07;;;;;;;;;;7381075;19;20160;-75
2022/05/12 05:32:45;;;;;;;4.17;2.90;;;;;;;;;;7390628;19;20548;-77
2022/05/12 05:35:14;;;;;;;78.13;9.63;;;;;;;;;;7386043;19;20641;-75
2022/05/12 05:37:42;;;;;;;4.07;2.90;;;;;;;;;;7389282;19;20129;-77
2022/05/12 05:40:08;;;;;;;5.30;2.63;;;;;;;;;;7390946;19;20141;-77
2022/05/12 05:42:35;;;;;;;6.97;4.03;;;;;;;;;;7390538;19;20224;-77
2022/05/12 05:45:08;;;;;;;20.80;7.03;;;;;;;;;;7387855;19;20149;-77
2022/05/12 05:47:34;;;;;;;162.67;46.70;;;;;;;;;;7382519;19;20157;-77
2022/05/12 05:50:00;;;;;;;92.67;26.50;;;;;;;;;;7388644;19;20125;-79
2022/05/12 05:55:11;;;;;;;35.63;11.80;;;;;;;;;;7384589;19;20155;-77
2022/05/12 05:57:38;;;;;;;11.07;4.47;;;;;;;;;;7392472;19;20117;-77
2022/05/12 06:00:05;;;;;;;17.30;7.23;;;;;;;;;;7393657;19;20125;-78
2022/05/12 06:02:32;;;;;;;15.17;5.73;;;;;;;;;;7389906;19;20136;-77
2022/05/12 06:04:58;;;;;;;7.67;3.80;;;;;;;;;;7392239;19;20148;-77
2022/05/12 06:07:24;;;;;;;7.13;4.07;;;;;;;;;;7394081;19;20260;-76
2022/05/12 18:08:50;;;;;;;5.65;3.35;;;;;;;;;;7384278;19;20784;-77
2022/05/12 18:11:16;;;;;;;6.35;3.47;;;;;;;;;;7379528;19;20133;-74
2022/05/12 18:13:43;;;;;;;4.60;3.40;;;;;;;;;;7385665;19;20133;-74
2022/05/12 18:16:09;;;;;;;8.07;3.60;;;;;;;;;;7385700;19;20176;-76
2022/05/12 18:18:36;;;;;;;7.80;3.80;;;;;;;;;;7388261;19;20157;-75
2022/05/12 18:21:02;;;;;;;6.68;3.55;;;;;;;;;;7389363;19;20322;-78
2022/05/12 18:23:28;;;;;;;5.88;4.30;;;;;;;;;;7385283;19;20988;-75
2022/05/12 18:25:54;;;;;;;6.70;3.22;;;;;;;;;;7391551;19;20152;-75
2022/05/12 18:28:21;;;;;;;6.63;3.97;;;;;;;;;;7386760;19;20121;-75
2022/05/12 18:30:48;;;;;;;7.13;4.20;;;;;;;;;;7390478;19;20153;-77
2022/05/12 18:33:14;;;;;;;7.07;4.82;;;;;;;;;;7376367;19;20595;-76
2022/05/12 18:35:43;;;;;;;4.32;3.78;;;;;;;;;;7377763;19;20184;-74
2022/05/12 18:38:09;;;;;;;7.78;4.15;;;;;;;;;;7377351;19;20156;-75
2022/05/12 18:40:35;;;;;;;7.43;3.63;;;;;;;;;;7382820;19;20151;-74
2022/05/12 18:43:02;;;;;;;7.97;3.83;;;;;;;;;;7380214;19;20677;-76
2022/05/12 18:45:28;;;;;;;5.38;3.15;;;;;;;;;;7387209;19;20156;-74
2022/05/12 18:47:54;;;;;;;6.28;4.10;;;;;;;;;;7406861;19;20120;-73
2022/05/12 18:50:21;;;;;;;5.90;3.55;;;;;;;;;;7417097;19;20210;-74
2022/05/12 18:52:47;;;;;;;7.10;4.40;;;;;;;;;;7416335;19;20161;-74
2022/05/12 18:55:14;;;;;;;7.28;5.32;;;;;;;;;;7416090;19;20164;-74
2022/05/12 18:57:40;;;;;;;5.40;3.70;;;;;;;;;;7423088;19;20160;-74
2022/05/12 19:00:07;;;;;;;6.18;3.30;;;;;;;;;;7410516;19;20133;-74
2022/05/12 19:02:33;;;;;;;8.15;3.95;;;;;;;;;;7413990;19;20165;-74
2022/05/12 19:05:00;;;;;;;7.85;3.50;;;;;;;;;;7375938;19;20185;-75
2022/05/12 19:07:26;;;;;;;7.57;3.60;;;;;;;;;;7377280;19;20156;-77
2022/05/12 19:09:53;;;;;;;13.50;9.07;;;;;;;;;;7386879;19;20521;-74
2022/05/12 19:12:26;;;;;;;11.73;8.70;;;;;;;;;;7374826;19;20171;-78
2022/05/12 19:15:13;;;;;;;11.13;5.88;;;;;;;;;;7380560;19;20541;-75
2022/05/12 19:17:44;;;;;;;7.80;3.42;;;;;;;;;;7382389;19;20144;-75
2022/05/12 19:20:10;;;;;;;6.00;3.83;;;;;;;;;;7384326;19;20136;-77
2022/05/12 19:22:36;;;;;;;7.13;3.85;;;;;;;;;;7385804;19;20149;-76
2022/05/12 19:25:02;;;;;;;7.38;4.13;;;;;;;;;;7369809;19;20149;-76
2022/05/12 19:27:29;;;;;;;9.30;3.50;;;;;;;;;;7376633;19;20144;-75
2022/05/12 19:29:55;;;;;;;7.97;4.07;;;;;;;;;;7388729;19;20145;-74
2022/05/12 19:32:21;;;;;;;6.93;3.75;;;;;;;;;;7383559;19;20149;-75
2022/05/12 19:34:47;;;;;;;5.43;3.40;;;;;;;;;;7381466;19;20236;-74
2022/05/12 19:37:13;;;;;;;7.28;3.45;;;;;;;;;;7381739;19;20432;-74
2022/05/12 19:39:39;;;;;;;7.00;4.03;;;;;;;;;;7378023;19;20133;-77
2022/05/12 19:42:05;;;;;;;4.53;3.83;;;;;;;;;;7381499;19;20144;-75
2022/05/12 19:44:31;;;;;;;5.72;3.58;;;;;;;;;;7385882;19;20160;-74
2022/05/12 19:46:57;;;;;;;7.45;3.92;;;;;;;;;;7375152;19;20221;-74
2022/05/12 19:49:24;;;;;;;5.72;3.60;;;;;;;;;;7380656;19;20152;-74
2022/05/12 19:51:50;;;;;;;6.10;3.85;;;;;;;;;;7384406;19;20137;-75
2022/05/12 19:54:17;;;;;;;5.13;3.80;;;;;;;;;;7372877;19;20152;-75
2022/05/12 19:56:43;;;;;;;7.38;3.70;;;;;;;;;;7375008;19;20137;-76
2022/05/12 19:59:09;;;;;;;7.75;3.80;;;;;;;;;;7367483;19;20159;-75
2022/05/12 20:01:35;;;;;;;4.78;3.47;;;;;;;;;;7386907;19;20145;-77
2022/05/12 20:04:02;;;;;;;5.95;3.85;;;;;;;;;;7380269;19;20537;-75
2022/05/12 20:06:28;;;;;;;6.70;3.70;;;;;;;;;;7378504;19;20139;-76
2022/05/12 20:08:56;;;;;;;8.38;3.88;;;;;;;;;;7381289;19;20141;-73
2022/05/12 20:11:22;;;;;;;6.95;3.65;;;;;;;;;;7376612;19;20208;-76
2022/05/12 20:13:48;;;;;;;16.00;11.68;;;;;;;;;;7366868;19;20157;-74
2022/05/12 20:16:14;;;;;;;9.88;3.90;;;;;;;;;;7364463;19;20258;-75
2022/05/12 20:18:40;;;;;;;6.13;3.95;;;;;;;;;;7376159;19;20133;-75
2022/05/12 20:21:06;;;;;;;6.95;3.60;;;;;;;;;;7378418;19;20146;-74
2022/05/12 20:23:32;;;;;;;6.38;4.03;;;;;;;;;;7376965;19;20132;-76
2022/05/12 20:26:01;;;;;;;7.28;3.92;;;;;;;;;;7369822;19;20265;-74
2022/05/12 20:28:27;;;;;;;8.48;3.63;;;;;;;;;;7369436;19;21708;-74
2022/05/12 20:30:53;;;;;;;8.80;4.00;;;;;;;;;;7372997;19;20222;-75
2022/05/12 20:33:22;;;;;;;5.53;3.55;;;;;;;;;;7379027;19;20848;-74
2022/05/12 20:35:48;;;;;;;8.65;3.90;;;;;;;;;;7378057;19;20226;-75
2022/05/12 20:38:14;;;;;;;5.13;3.75;;;;;;;;;;7375880;19;20591;-74
2022/05/12 20:40:42;;;;;;;7.82;3.60;;;;;;;;;;7375466;19;20137;-75
2022/05/12 20:43:08;;;;;;;4.53;3.75;;;;;;;;;;7377040;19;20192;-74
2022/05/12 20:48:20;;;;;;;7.70;3.80;;;;;;;;;;7384250;19;20148;-75
2022/05/12 20:50:46;;;;;;;5.25;3.92;;;;;;;;;;7381945;19;20654;-75
2022/05/12 20:53:12;;;;;;;6.90;3.65;;;;;;;;;;7368787;19;20128;-73
2022/05/12 20:55:38;;;;;;;6.75;4.43;;;;;;;;;;7381506;19;20176;-74
2022/05/12 20:58:04;;;;;;;7.60;4.10;;;;;;;;;;7374233;19;20797;-74
2022/05/12 21:00:31;;;;;;;5.38;3.70;;;;;;;;;;7376091;19;21335;-74
2022/05/12 21:02:57;;;;;;;5.63;3.85;;;;;;;;;;7366202;19;20481;-74
2022/05/12 21:05:24;;;;;;;6.00;3.90;;;;;;;;;;7373829;19;20171;-74
2022/05/12 21:07:49;;;;;;;5.47;4.07;;;;;;;;;;7378708;19;20160;-76
2022/05/12 21:10:16;;;;;;;7.28;3.90;;;;;;;;;;7384450;19;20250;-76
2022/05/12 21:12:42;;;;;;;3.85;3.38;;;;;;;;;;7383115;19;20137;-76
2022/05/12 21:15:08;;;;;;;4.32;3.10;;;;;;;;;;7384708;19;20149;-75
2022/05/12 21:17:34;;;;;;;6.10;3.80;;;;;;;;;;7384530;19;20143;-77
2022/05/12 21:20:00;;;;;;;6.13;3.80;;;;;;;;;;7379244;19;20595;-75
2022/05/12 21:22:26;;;;;;;6.15;4.05;;;;;;;;;;7386529;19;20129;-77
2022/05/12 21:24:53;;;;;;;7.32;3.50;;;;;;;;;;7392157;19;20492;-75
2022/05/12 21:27:19;;;;;;;4.43;3.30;;;;;;;;;;7391631;19;20172;-75
2022/05/12 21:29:45;;;;;;;7.70;3.70;;;;;;;;;;7390386;19;20125;-75
2022/05/12 21:32:15;;;;;;;7.28;3.65;;;;;;;;;;7393484;19;20169;-75
2022/05/12 21:34:41;;;;;;;4.35;3.42;;;;;;;;;;7392492;19;20148;-75
2022/05/12 21:37:10;;;;;;;6.95;3.92;;;;;;;;;;7394938;19;20590;-75
2022/05/12 21:39:37;;;;;;;8.45;3.78;;;;;;;;;;7393105;19;20142;-75
2022/05/12 21:42:04;;;;;;;6.95;3.53;;;;;;;;;;7389833;19;20607;-76
2022/05/12 21:44:30;;;;;;;4.20;3.70;;;;;;;;;;7392703;19;20145;-76
2022/05/12 21:46:56;;;;;;;6.43;3.97;;;;;;;;;;7394138;19;20588;-75
2022/05/12 21:49:22;;;;;;;5.28;3.45;;;;;;;;;;7384930;19;20133;-75
2022/05/12 21:51:48;;;;;;;8.07;3.72;;;;;;;;;;7393169;19;20141;-74
2022/05/12 21:54:14;;;;;;;6.70;3.85;;;;;;;;;;7380492;19;20532;-75
2022/05/12 21:56:40;;;;;;;6.43;3.88;;;;;;;;;;7389254;19;20166;-75
2022/05/12 22:01:53;;;;;;;4.03;3.22;;;;;;;;;;7388306;19;20139;-75
2022/05/12 22:04:23;;;;;;;6.38;3.97;;;;;;;;;;7377178;19;20124;-75
2022/05/12 22:07:00;;;;;;;8.52;3.75;;;;;;;;;;7390848;19;21078;-75
2022/05/12 22:09:27;;;;;;;4.18;3.40;;;;;;;;;;7389063;19;20148;-75
2022/05/12 22:14:38;;;;;;;5.32;3.88;;;;;;;;;;7388246;19;20168;-75
2022/05/12 22:17:06;;;;;;;5.35;3.80;;;;;;;;;;7386729;19;20133;-75
2022/05/12 22:19:33;;;;;;;6.00;4.15;;;;;;;;;;7383071;19;20133;-74
2022/05/12 22:21:59;;;;;;;9.00;3.47;;;;;;;;;;7382568;19;20129;-76
2022/05/12 22:24:25;;;;;;;5.80;3.90;;;;;;;;;;7382230;19;20156;-75
2022/05/12 22:26:51;;;;;;;7.03;3.78;;;;;;;;;;7382240;19;20148;-74
2022/05/12 22:29:19;;;;;;;4.72;3.53;;;;;;;;;;7382144;19;20148;-75
2022/05/12 22:31:45;;;;;;;7.37;4.10;;;;;;;;;;7382706;19;20152;-75
2022/05/12 22:34:11;;;;;;;7.68;3.67;;;;;;;;;;7387100;19;20145;-74
2022/05/12 22:36:37;;;;;;;7.23;4.80;;;;;;;;;;7386408;19;20133;-74
2022/05/12 22:39:04;;;;;;;5.67;4.07;;;;;;;;;;7393456;19;20176;-74
2022/05/12 22:41:31;;;;;;;6.67;4.50;;;;;;;;;;7393045;19;20140;-75
2022/05/12 22:43:57;;;;;;;5.37;3.90;;;;;;;;;;7378877;19;20145;-76
2022/05/12 22:46:23;;;;;;;6.87;4.07;;;;;;;;;;7379132;19;20176;-76
2022/05/12 22:48:49;;;;;;;4.70;3.80;;;;;;;;;;7392513;19;20140;-77
2022/05/12 22:51:15;;;;;;;6.03;4.10;;;;;;;;;;7387842;19;20164;-77
2022/05/12 22:53:42;;;;;;;7.38;4.43;;;;;;;;;;7387931;19;20356;-75
2022/05/12 22:56:08;;;;;;;8.97;4.23;;;;;;;;;;7380498;19;20216;-75
2022/05/12 22:58:34;;;;;;;8.23;4.67;;;;;;;;;;7385859;19;20135;-75
2022/05/12 23:01:00;;;;;;;7.27;4.33;;;;;;;;;;7380529;19;20148;-76
2022/05/12 23:03:26;;;;;;;6.30;4.30;;;;;;;;;;7379546;19;20152;-76
2022/05/12 23:05:52;;;;;;;6.33;4.20;;;;;;;;;;7377067;19;20172;-75
2022/05/12 23:08:18;;;;;;;8.87;4.97;;;;;;;;;;7382837;19;20135;-76
2022/05/12 23:10:44;;;;;;;7.20;4.40;;;;;;;;;;7391499;19;20204;-76
2022/05/12 23:13:14;;;;;;;9.93;4.70;;;;;;;;;;7388148;19;20859;-74
2022/05/12 23:15:40;;;;;;;6.40;4.50;;;;;;;;;;7382972;19;20680;-74
2022/05/12 23:18:06;;;;;;;5.43;4.40;;;;;;;;;;7388328;19;20137;-75
2022/05/12 23:23:17;;;;;;;8.97;4.50;;;;;;;;;;7386137;19;20149;-76
2022/05/12 23:25:43;;;;;;;8.57;4.25;;;;;;;;;;7383134;19;20760;-75
2022/05/12 23:28:09;;;;;;;6.40;4.70;;;;;;;;;;7392121;19;20603;-75
2022/05/12 23:30:35;;;;;;;10.80;5.10;;;;;;;;;;7389831;19;20137;-75
2022/05/12 23:33:01;;;;;;;7.57;4.57;;;;;;;;;;7387855;19;20463;-77
2022/05/12 23:35:27;;;;;;;9.07;5.00;;;;;;;;;;7385855;19;20153;-75
2022/05/12 23:37:55;;;;;;;6.03;4.30;;;;;;;;;;7388386;19;20158;-74
2022/05/12 23:40:22;;;;;;;9.32;4.55;;;;;;;;;;7384696;19;20163;-74
2022/05/12 23:42:50;;;;;;;9.83;5.10;;;;;;;;;;7389607;19;20128;-75
2022/05/12 23:45:16;;;;;;;7.33;4.90;;;;;;;;;;7386215;19;20161;-75
2022/05/12 23:47:42;;;;;;;8.07;4.63;;;;;;;;;;7380355;19;20144;-75
2022/05/12 23:50:09;;;;;;;10.30;4.80;;;;;;;;;;7386920;19;20210;-77
2022/05/12 23:52:36;;;;;;;5.75;4.95;;;;;;;;;;7388761;19;20601;-76
2022/05/12 23:55:03;;;;;;;6.70;5.22;;;;;;;;;;7384428;19;20537;-75
2022/05/12 23:57:30;;;;;;;8.60;5.80;;;;;;;;;;7385727;19;20611;-76
2022/05/12 23:59:56;;;;;;;10.80;5.53;;;;;;;;;;7377492;19;20244;-73
